»·PEaware :: N1343S KSBA-KBUR

N1343S :: KSBA-KBUR

FLIGHT INFORMATION

Flight Status: Arrived
Operator: Privately registered:
United States
More flights under this callsign
Pilot: Eric C. (19116)
Aircraft: CESSNA 172 SKYHAWK
(C172)
More flights by this aircraft type
Origin: KSBA Santa Barbara Mun
United States
Destination: KBUR Bob Hope-Burbank
United States
More flights between these airports :: More routes between these airports
Route: +
File this flight plan on PilotEdge
Remarks:
Altitude:
(Current/Filed)
4,500ft
Speed:
(Current/Filed)
0kts
Departed: 16-May-18 05:20 PM
Arrived: 16-May-18 06:02 PM
Distance/Time
Traveled:
75nm/0:41
Distance/Time
To Go:
Arrived

Flight Plot

Page will automatically refresh every two minutes.


Map Options




Map Legend


Flown Route
Filed Route
Departure Airport
Arrival Airport
Navaid (VOR, NDB)
Fix

Horizontal Profiles

Position Reports

Time Latitude Longitude Heading Altitude Ground
Speed
16-May-18 17:04 34.422664 -119.835594 340 13ft 0kts
16-May-18 17:05 34.422664 -119.835593 340 13ft 0kts
16-May-18 17:06 34.422664 -119.835593 340 13ft 0kts
16-May-18 17:07 34.422664 -119.835594 340 13ft 0kts
16-May-18 17:08 34.422664 -119.835594 340 13ft 0kts
16-May-18 17:09 34.422795 -119.835682 321 13ft 0kts
16-May-18 17:10 34.422795 -119.835682 321 13ft 0kts
16-May-18 17:11 34.422795 -119.835681 320 13ft 0kts
16-May-18 17:12 34.422710 -119.835936 260 13ft 3kts
16-May-18 17:13 34.424255 -119.837626 338 13ft 13kts
16-May-18 17:14 34.426728 -119.837141 89 13ft 17kts
16-May-18 17:15 34.427003 -119.834304 357 13ft 0kts
16-May-18 17:16 34.427003 -119.834304 357 13ft 0kts
16-May-18 17:17 34.427004 -119.834304 357 13ft 0kts
16-May-18 17:18 34.427003 -119.834304 357 13ft 0kts
16-May-18 17:19 34.427881 -119.836113 267 13ft 37kts
16-May-18 17:20 34.427358 -119.856711 262 839ft 64kts
16-May-18 17:21 34.426281 -119.879125 263 1556ft 83kts
16-May-18 17:22 34.422631 -119.911106 262 1464ft 97kts
16-May-18 17:23 34.405366 -119.905733 95 2330ft 108kts
16-May-18 17:24 34.404964 -119.870487 95 3211ft 104kts
16-May-18 17:25 34.406363 -119.835788 89 4062ft 102kts
16-May-18 17:26 34.400125 -119.805436 109 5015ft 94kts
16-May-18 17:27 34.394388 -119.773987 104 5790ft 101kts
16-May-18 17:28 34.389382 -119.740270 103 6494ft 104kts
16-May-18 17:29 34.384691 -119.705811 102 7201ft 103kts
16-May-18 17:30 34.379846 -119.669261 102 7527ft 129kts
16-May-18 17:31 34.373831 -119.623686 101 7515ft 138kts
16-May-18 17:32 34.368010 -119.579307 101 7516ft 130kts
16-May-18 17:33 34.362163 -119.534662 101 7524ft 143kts
16-May-18 17:34 34.356019 -119.487940 101 7526ft 139kts
16-May-18 17:35 34.349986 -119.442200 101 7539ft 139kts
16-May-18 17:36 34.343922 -119.396317 100 7543ft 139kts
16-May-18 17:37 34.337918 -119.351039 100 7547ft 138kts
16-May-18 17:38 34.332373 -119.309296 101 7547ft 138kts
16-May-18 17:39 34.326646 -119.266337 101 7549ft 138kts
16-May-18 17:40 34.321053 -119.224473 101 7548ft 138kts
16-May-18 17:41 34.315166 -119.180609 101 7546ft 138kts
16-May-18 17:42 34.309271 -119.136690 101 7545ft 138kts
16-May-18 17:43 34.303314 -119.092481 101 7543ft 138kts
16-May-18 17:44 34.297307 -119.047970 101 7542ft 137kts
16-May-18 17:45 34.291175 -119.002718 101 7541ft 137kts
16-May-18 17:46 34.285040 -118.957563 101 7541ft 137kts
16-May-18 17:47 34.278426 -118.911928 103 7541ft 137kts
16-May-18 17:48 34.272177 -118.867288 102 7542ft 137kts
16-May-18 17:49 34.265995 -118.822279 103 7542ft 137kts
16-May-18 17:50 34.259922 -118.778124 103 7540ft 136kts
16-May-18 17:51 34.254018 -118.735293 104 7536ft 134kts
16-May-18 17:52 34.247966 -118.691780 105 7225ft 139kts
16-May-18 17:53 34.241850 -118.647879 105 6459ft 137kts
16-May-18 17:54 34.235962 -118.605507 105 5699ft 133kts
16-May-18 17:55 34.230225 -118.563979 100 4926ft 129kts
16-May-18 17:56 34.228969 -118.523569 103 4126ft 124kts
16-May-18 17:57 34.223829 -118.483718 103 3350ft 124kts
16-May-18 17:58 34.218906 -118.445773 103 2896ft 113kts
16-May-18 17:59 34.225619 -118.408353 68 2210ft 126kts
16-May-18 18:00 34.238626 -118.375512 80 1767ft 92kts
16-May-18 18:01 34.220911 -118.363053 166 1113ft 73kts
16-May-18 18:02 34.206254 -118.358779 163 737ft 28kts
16-May-18 18:03 34.203216 -118.357138 79 737ft 7kts
16-May-18 18:04 34.202634 -118.356496 170 737ft 12kts
16-May-18 18:05 34.198910 -118.355850 249 737ft 2kts
16-May-18 18:06 34.199867 -118.358641 332 737ft 7kts
16-May-18 18:07 34.199982 -118.358718 326 737ft 0kts
16-May-18 18:08 34.199982 -118.358718 326 737ft 0kts
16-May-18 18:09 34.199982 -118.358718 326 737ft 0kts
16-May-18 18:10 34.199982 -118.358718 326 737ft 0kts
16-May-18 18:11 34.199982 -118.358718 326 737ft 0kts
16-May-18 18:12 34.199982 -118.358718 326 737ft 0kts
16-May-18 18:13 34.199982 -118.358718 326 737ft 0kts
16-May-18 18:14 34.199982 -118.358718 326 737ft 0kts
16-May-18 18:15 34.199982 -118.358718 326 737ft 0kts
16-May-18 18:16 34.199982 -118.358718 326 737ft 0kts

Navigation Log

Ident Type
1. KSBA Airport
2. KBUR Airport